Terminal Aerodrome Forecast
Issued by NWS Wilmington, OH

Current Version | Previous Version | Graphics & Text | Print | Product List | Glossary On
Versions: 1 2 3 4 5 6 7 8 9 10 11 12 13 14 15 16 17 18
000
FTUS41 KILN 232200 AAA
TAFDAY
TAF AMD
KDAY 232211Z 2322/2418 13005KT 1/4SM FG OVC002
     FM240000 12005KT 2SM -SHRA BR OVC004
     FM240700 12010KT 5SM BR OVC004
     FM240900 15011KT 5SM -SHRA BR OVC005
     FM241400 18018G25KT P6SM VCSH OVC010
     FM241700 23022G34KT P6SM VCSH BKN015=

USA.gov is the U.S. government's official web portal to all federal, state and local government web resources and services.